Hartsfield Jackson Atlanta International Airport
KATL : now visible

Airfield :











YOU CAN JOIN US ON...

 
LOGIN :

Register | Disclaimer

   EN    FR    IT 

 









Legend :    VFR   Marginal VFR   IFR   Intensive IFR   Very Intensive IFR
Visi :
Ceiling :
>= 8 km
>= 3000ft
5 to 8 km
1000 to 3000 ft
1500m to 5 km
500 to 1000 ft
800 to 1500m
200 to 500 ft
< 800m
< 200 ft
Symbols :   Thunderstorms  Fog  Heavy snow  Heavy precipitations  Wind > 20 kt






- Airport Elevation : 1026 ft
- IATA code : ATL


KATL - Hartsfield Jackson Atlanta International

CURRENT METAR :
  • 171309Z 14005KT 1/4SM R09R/1400V1800FT FG VV002 07/06 A3010 RMK AO2 T00720061 $

EXPIRED METARs :
  • 171257Z 14005KT 1/4SM R09R/1200V2400FT FG VV002 07/06 A3010 RMK AO2 T00720061 $
  • 171252Z 14004KT 1/4SM R09R/1200V1600FT FG VV002 07/06 A3010 RMK AO2 SLP197 T00670061 $
  • 171243Z 14005KT 1/8SM R09R/1200V1400FT FG VV002 07/06 A3010 RMK AO2 TWR VIS 1/4 T00720061 $
  • 171156Z 10004KT 1/4SM R09R/1400V2000FT FG VV002 07/06 A3010 RMK AO2 TWR VIS 1/4 T00720061 $
  • 171052Z 05003KT 1/4SM R09R/1400V1800FT FG VV002 07/06 A3009 RMK AO2 SLP192 T00720056 $
  • 171037Z 00000KT 1/4SM R09R/1400V4000FT FG VV002 07/07 A3008 RMK AO2 T00720067 $

TAF KATL
Valid from the 17 at 12:00 until the 18 at 18:00 UTC


171143Z 1712/1818 06004KT 1SM -DZ BR OVC003
TEMPO 1712/1714 1/4SM FG OVC001
FM171500 09005KT 4SM BR BKN005
FM171800 12007KT P6SM BKN008
FM172100 12006KT P6SM BKN015
FM180200 11006KT 5SM BR VCSH BKN008
FM180400 12005KT 4SM BR VCSH OVC003
FM180800 12005KT 2SM SHRA BKN005



MET'MAP, your aeronautical weather chart ! - Copyright ORBIFLY December 2007 - Disclaimer

ORBIFLY MET'MAP TEAM :

Programming & Development : Alexandra Zaïnal
Concept & original design : Baudouin d'Aumeries
Assistance for programming : Marc-Olivier Méhu
Technical & hardware support : Manuel Goepfert

Contact : metmap@orbifly.com




SOURCES & CREDITS :

   NOAA       Earth
Advisory